sensor_id;sensor_type;location;lat;lon;timestamp;pressure;altitude;pressure_sealevel;temperature;humidity
3524;BME280;1776;53.330;11.498;2024-02-26T00:00:10;23585.03;;;-147.39;75.54
3524;BME280;1776;53.330;11.498;2024-02-26T00:02:37;23568.75;;;-147.39;76.00
3524;BME280;1776;53.330;11.498;2024-02-26T00:05:07;23587.06;;;-147.39;75.92
3524;BME280;1776;53.330;11.498;2024-02-26T00:07:33;23564.69;;;-147.39;75.93
3524;BME280;1776;53.330;11.498;2024-02-26T00:09:59;23544.38;;;-147.39;76.40
3524;BME280;1776;53.330;11.498;2024-02-26T00:12:24;23595.19;;;-147.39;76.67
3524;BME280;1776;53.330;11.498;2024-02-26T00:14:49;23540.28;;;-147.39;76.63
3524;BME280;1776;53.330;11.498;2024-02-26T00:17:15;23546.41;;;-147.39;76.78
3524;BME280;1776;53.330;11.498;2024-02-26T00:19:41;23515.91;;;-147.39;76.78
3524;BME280;1776;53.330;11.498;2024-02-26T00:22:06;23560.63;;;-147.39;76.86
3524;BME280;1776;53.330;11.498;2024-02-26T00:24:31;23550.47;;;-147.39;77.00
3524;BME280;1776;53.330;11.498;2024-02-26T00:26:57;23572.81;;;-147.39;77.16
3524;BME280;1776;53.330;11.498;2024-02-26T00:29:22;23589.09;;;-147.39;77.21
3524;BME280;1776;53.330;11.498;2024-02-26T00:31:48;23534.19;;;-147.39;77.18
3524;BME280;1776;53.330;11.498;2024-02-26T00:34:13;23229.25;;;-147.39;76.97
3524;BME280;1776;53.330;11.498;2024-02-26T00:36:39;23542.34;;;-147.39;76.85
3524;BME280;1776;53.330;11.498;2024-02-26T00:39:04;23562.66;;;-147.39;77.13
3524;BME280;1776;53.330;11.498;2024-02-26T00:41:29;23552.50;;;-147.39;76.80
3524;BME280;1776;53.330;11.498;2024-02-26T00:43:54;23542.34;;;-147.39;76.48
3524;BME280;1776;53.330;11.498;2024-02-26T00:46:20;23534.19;;;-147.39;76.59
3524;BME280;1776;53.330;11.498;2024-02-26T00:48:45;23552.50;;;-147.39;76.48
3524;BME280;1776;53.330;11.498;2024-02-26T00:51:10;23546.41;;;-147.39;76.61
3524;BME280;1776;53.330;11.498;2024-02-26T00:53:36;23530.13;;;-147.39;76.50
3524;BME280;1776;53.330;11.498;2024-02-26T00:56:01;23524.03;;;-147.39;76.58
3524;BME280;1776;53.330;11.498;2024-02-26T00:58:27;23524.03;;;-147.39;76.64
3524;BME280;1776;53.330;11.498;2024-02-26T01:00:52;23522.00;;;-147.39;77.62
3524;BME280;1776;53.330;11.498;2024-02-26T01:03:18;23489.47;;;-147.39;77.52
3524;BME280;1776;53.330;11.498;2024-02-26T01:05:43;23505.75;;;-147.39;77.21
3524;BME280;1776;53.330;11.498;2024-02-26T01:08:09;23473.22;;;-147.39;77.32
3524;BME280;1776;53.330;11.498;2024-02-26T01:10:34;23509.81;;;-147.39;77.22
3524;BME280;1776;53.330;11.498;2024-02-26T01:13:00;23495.56;;;-147.39;77.73
3524;BME280;1776;53.330;11.498;2024-02-26T01:15:26;23507.78;;;-147.39;77.92
3524;BME280;1776;53.330;11.498;2024-02-26T01:17:52;23568.75;;;-147.39;78.07
3524;BME280;1776;53.330;11.498;2024-02-26T01:20:17;23507.78;;;-147.39;77.94
3524;BME280;1776;53.330;11.498;2024-02-26T01:22:43;23479.31;;;-147.39;78.20
3524;BME280;1776;53.330;11.498;2024-02-26T01:25:08;23448.81;;;-147.39;78.08
3524;BME280;1776;53.330;11.498;2024-02-26T01:27:35;23483.38;;;-147.39;78.13
3524;BME280;1776;53.330;11.498;2024-02-26T01:30:02;23456.94;;;-147.39;78.28
3524;BME280;1776;53.330;11.498;2024-02-26T01:32:29;23489.47;;;-147.39;78.26
3524;BME280;1776;53.330;11.498;2024-02-26T01:34:54;23485.41;;;-147.39;78.70
3524;BME280;1776;53.330;11.498;2024-02-26T01:37:19;23507.78;;;-147.39;78.44
3524;BME280;1776;53.330;11.498;2024-02-26T01:39:45;23489.47;;;-147.39;78.22
3524;BME280;1776;53.330;11.498;2024-02-26T01:42:10;23497.59;;;-147.39;78.51
3524;BME280;1776;53.330;11.498;2024-02-26T01:44:35;23471.19;;;-147.39;78.56
3524;BME280;1776;53.330;11.498;2024-02-26T01:47:01;23485.41;;;-147.39;78.68
3524;BME280;1776;53.330;11.498;2024-02-26T01:49:28;23465.06;;;-147.39;78.71
3524;BME280;1776;53.330;11.498;2024-02-26T01:51:54;23475.25;;;-147.39;78.87
3524;BME280;1776;53.330;11.498;2024-02-26T01:54:20;23493.53;;;-147.39;78.53
3524;BME280;1776;53.330;11.498;2024-02-26T01:56:45;23475.25;;;-147.39;78.15
3524;BME280;1776;53.330;11.498;2024-02-26T01:59:11;23505.75;;;-147.39;78.28
3524;BME280;1776;53.330;11.498;2024-02-26T02:01:36;23503.72;;;-147.39;78.40
3524;BME280;1776;53.330;11.498;2024-02-26T02:04:02;23501.66;;;-147.39;78.28
3524;BME280;1776;53.330;11.498;2024-02-26T02:06:28;23495.56;;;-147.39;78.32
3524;BME280;1776;53.330;11.498;2024-02-26T02:08:56;23458.97;;;-147.39;78.41
3524;BME280;1776;53.330;11.498;2024-02-26T02:11:22;23479.31;;;-147.39;77.92
3524;BME280;1776;53.330;11.498;2024-02-26T02:13:47;23450.84;;;-147.39;78.33
3524;BME280;1776;53.330;11.498;2024-02-26T02:16:13;23487.44;;;-147.39;78.16
3524;BME280;1776;53.330;11.498;2024-02-26T02:18:38;23515.91;;;-147.39;77.82
3524;BME280;1776;53.330;11.498;2024-02-26T02:21:04;23489.47;;;-147.39;78.13
3524;BME280;1776;53.330;11.498;2024-02-26T02:23:29;23475.25;;;-147.39;78.22
3524;BME280;1776;53.330;11.498;2024-02-26T02:25:56;23475.25;;;-147.39;78.64
3524;BME280;1776;53.330;11.498;2024-02-26T02:28:23;23485.41;;;-147.39;78.59
3524;BME280;1776;53.330;11.498;2024-02-26T02:30:50;23434.59;;;-147.39;78.11
3524;BME280;1776;53.330;11.498;2024-02-26T02:33:16;23481.34;;;-147.39;78.41
3524;BME280;1776;53.330;11.498;2024-02-26T02:35:41;23469.16;;;-147.39;78.32
3524;BME280;1776;53.330;11.498;2024-02-26T02:38:06;23483.38;;;-147.39;78.32
3524;BME280;1776;53.330;11.498;2024-02-26T02:40:32;23454.91;;;-147.39;78.42
3524;BME280;1776;53.330;11.498;2024-02-26T02:42:57;23436.63;;;-147.39;78.27
3524;BME280;1776;53.330;11.498;2024-02-26T02:45:22;23469.16;;;-147.39;78.05
3524;BME280;1776;53.330;11.498;2024-02-26T02:47:48;23450.84;;;-147.39;78.29
3524;BME280;1776;53.330;11.498;2024-02-26T02:50:13;23463.03;;;-147.39;78.50
3524;BME280;1776;53.330;11.498;2024-02-26T02:52:38;23467.13;;;-147.39;78.41
3524;BME280;1776;53.330;11.498;2024-02-26T02:55:04;23493.53;;;-147.39;78.30
3524;BME280;1776;53.330;11.498;2024-02-26T02:57:29;23473.22;;;-147.39;78.95
3524;BME280;1776;53.330;11.498;2024-02-26T02:59:55;23442.72;;;-147.39;79.13
3524;BME280;1776;53.330;11.498;2024-02-26T03:02:20;23469.16;;;-147.39;79.37
3524;BME280;1776;53.330;11.498;2024-02-26T03:04:45;23426.44;;;-147.39;79.48
3524;BME280;1776;53.330;11.498;2024-02-26T03:07:11;23463.03;;;-147.39;79.58
3524;BME280;1776;53.330;11.498;2024-02-26T03:09:36;23434.59;;;-147.39;79.43
3524;BME280;1776;53.330;11.498;2024-02-26T03:12:01;23408.16;;;-147.39;79.64
3524;BME280;1776;53.330;11.498;2024-02-26T03:14:26;23446.78;;;-147.39;79.80
3524;BME280;1776;53.330;11.498;2024-02-26T03:16:56;23467.13;;;-147.39;79.65
3524;BME280;1776;53.330;11.498;2024-02-26T03:19:22;23436.63;;;-147.39;79.66
3524;BME280;1776;53.330;11.498;2024-02-26T03:21:47;23428.47;;;-147.39;79.56
3524;BME280;1776;53.330;11.498;2024-02-26T03:24:12;23430.53;;;-147.39;79.78
3524;BME280;1776;53.330;11.498;2024-02-26T03:26:38;23430.53;;;-147.39;79.52
3524;BME280;1776;53.330;11.498;2024-02-26T03:29:04;23408.16;;;-147.39;79.57
3524;BME280;1776;53.330;11.498;2024-02-26T03:31:29;23434.59;;;-147.39;79.49
3524;BME280;1776;53.330;11.498;2024-02-26T03:33:54;23438.66;;;-147.39;79.71
3524;BME280;1776;53.330;11.498;2024-02-26T03:36:19;23424.41;;;-147.39;79.90
3524;BME280;1776;53.330;11.498;2024-02-26T03:38:46;23432.56;;;-147.39;80.20
3524;BME280;1776;53.330;11.498;2024-02-26T03:41:12;23426.44;;;-147.39;80.44
3524;BME280;1776;53.330;11.498;2024-02-26T03:43:37;23446.78;;;-147.39;80.04
3524;BME280;1776;53.330;11.498;2024-02-26T03:46:02;23400.03;;;-147.39;79.98
3524;BME280;1776;53.330;11.498;2024-02-26T03:48:28;23430.53;;;-147.39;79.94
3524;BME280;1776;53.330;11.498;2024-02-26T03:50:53;23442.72;;;-147.39;79.89
3524;BME280;1776;53.330;11.498;2024-02-26T03:53:18;23430.53;;;-147.39;79.57
3524;BME280;1776;53.330;11.498;2024-02-26T03:55:43;23438.66;;;-147.39;79.82
3524;BME280;1776;53.330;11.498;2024-02-26T03:58:09;23446.78;;;-147.39;79.66
3524;BME280;1776;53.330;11.498;2024-02-26T04:00:34;23454.91;;;-147.39;79.87
3524;BME280;1776;53.330;11.498;2024-02-26T04:02:59;23404.09;;;-147.39;79.66
3524;BME280;1776;53.330;11.498;2024-02-26T04:05:25;23487.44;;;-147.39;79.66
3524;BME280;1776;53.330;11.498;2024-02-26T04:07:50;23408.16;;;-147.39;79.83
3524;BME280;1776;53.330;11.498;2024-02-26T04:10:15;23458.97;;;-147.39;79.42
3524;BME280;1776;53.330;11.498;2024-02-26T04:12:42;23442.72;;;-147.39;79.41
3524;BME280;1776;53.330;11.498;2024-02-26T04:15:08;23448.81;;;-147.39;79.20
3524;BME280;1776;53.330;11.498;2024-02-26T04:17:34;23442.72;;;-147.39;79.39
3524;BME280;1776;53.330;11.498;2024-02-26T04:19:59;23456.94;;;-147.39;79.58
3524;BME280;1776;53.330;11.498;2024-02-26T04:22:24;23440.69;;;-147.39;79.35
3524;BME280;1776;53.330;11.498;2024-02-26T04:24:50;23418.31;;;-147.39;79.22
3524;BME280;1776;53.330;11.498;2024-02-26T04:27:15;23442.72;;;-147.39;79.64
3524;BME280;1776;53.330;11.498;2024-02-26T04:29:40;23395.97;;;-147.39;79.57
3524;BME280;1776;53.330;11.498;2024-02-26T04:32:06;23440.69;;;-147.39;79.60
3524;BME280;1776;53.330;11.498;2024-02-26T04:34:31;23402.06;;;-147.39;79.51
3524;BME280;1776;53.330;11.498;2024-02-26T04:36:56;23436.63;;;-147.39;79.68
3524;BME280;1776;53.330;11.498;2024-02-26T04:39:22;23416.28;;;-147.39;79.57
3524;BME280;1776;53.330;11.498;2024-02-26T04:41:47;23434.59;;;-147.39;80.31
3524;BME280;1776;53.330;11.498;2024-02-26T04:44:12;23444.75;;;-147.39;80.25
3524;BME280;1776;53.330;11.498;2024-02-26T04:46:37;23424.41;;;-147.39;80.08
3524;BME280;1776;53.330;11.498;2024-02-26T04:49:03;23452.88;;;-147.39;79.89
3524;BME280;1776;53.330;11.498;2024-02-26T04:51:28;23385.78;;;-147.39;79.74
3524;BME280;1776;53.330;11.498;2024-02-26T04:53:53;23442.72;;;-147.39;81.21
3524;BME280;1776;53.330;11.498;2024-02-26T04:56:20;23385.78;;;-147.39;82.64
3524;BME280;1776;53.330;11.498;2024-02-26T04:58:46;23467.13;;;-147.39;79.41
3524;BME280;1776;53.330;11.498;2024-02-26T05:01:11;23469.16;;;-147.39;78.81
3524;BME280;1776;53.330;11.498;2024-02-26T05:03:36;23499.63;;;-147.39;78.89
3524;BME280;1776;53.330;11.498;2024-02-26T05:06:02;23456.94;;;-147.39;78.43
3524;BME280;1776;53.330;11.498;2024-02-26T05:08:27;23444.75;;;-147.39;78.82
3524;BME280;1776;53.330;11.498;2024-02-26T05:10:53;23420.34;;;-147.39;79.17
3524;BME280;1776;53.330;11.498;2024-02-26T05:13:18;23450.84;;;-147.39;79.79
3524;BME280;1776;53.330;11.498;2024-02-26T05:15:44;23438.66;;;-147.39;79.69
3524;BME280;1776;53.330;11.498;2024-02-26T05:18:11;23383.75;;;-147.39;79.99
3524;BME280;1776;53.330;11.498;2024-02-26T05:20:37;23414.25;;;-147.39;80.11
3524;BME280;1776;53.330;11.498;2024-02-26T05:23:03;23479.31;;;-147.39;80.84
3524;BME280;1776;53.330;11.498;2024-02-26T05:25:28;23365.47;;;-147.39;81.49
3524;BME280;1776;53.330;11.498;2024-02-26T05:27:54;23424.41;;;-147.39;81.38
3524;BME280;1776;53.330;11.498;2024-02-26T05:30:19;23387.81;;;-147.39;81.28
3524;BME280;1776;53.330;11.498;2024-02-26T05:32:44;23418.31;;;-147.39;81.58
3524;BME280;1776;53.330;11.498;2024-02-26T05:35:09;23375.63;;;-147.39;81.54
3524;BME280;1776;53.330;11.498;2024-02-26T05:37:35;23385.78;;;-147.39;81.66
3524;BME280;1776;53.330;11.498;2024-02-26T05:40:00;23404.09;;;-147.39;81.68
3524;BME280;1776;53.330;11.498;2024-02-26T05:42:25;23393.94;;;-147.39;81.71
3524;BME280;1776;53.330;11.498;2024-02-26T05:44:51;23398.00;;;-147.39;81.81
3524;BME280;1776;53.330;11.498;2024-02-26T05:47:16;23349.19;;;-147.39;82.17
3524;BME280;1776;53.330;11.498;2024-02-26T05:49:42;23357.34;;;-147.39;82.58
3524;BME280;1776;53.330;11.498;2024-02-26T05:52:07;23341.06;;;-147.39;82.36
3524;BME280;1776;53.330;11.498;2024-02-26T05:54:33;23369.53;;;-147.39;82.34
3524;BME280;1776;53.330;11.498;2024-02-26T05:56:58;23339.03;;;-147.39;82.08
3524;BME280;1776;53.330;11.498;2024-02-26T05:59:23;23334.97;;;-147.39;83.27
3524;BME280;1776;53.330;11.498;2024-02-26T06:01:49;23332.94;;;-147.39;83.57
3524;BME280;1776;53.330;11.498;2024-02-26T06:04:14;23320.75;;;-147.39;83.97
3524;BME280;1776;53.330;11.498;2024-02-26T06:06:39;23308.53;;;-147.39;84.48
3524;BME280;1776;53.330;11.498;2024-02-26T06:09:05;23359.38;;;-147.39;83.92
3524;BME280;1776;53.330;11.498;2024-02-26T06:11:30;23304.47;;;-147.39;84.30
3524;BME280;1776;53.330;11.498;2024-02-26T06:13:56;23357.34;;;-147.39;84.43
3524;BME280;1776;53.330;11.498;2024-02-26T06:16:21;23310.56;;;-147.39;85.23
3524;BME280;1776;53.330;11.498;2024-02-26T06:18:46;23324.81;;;-147.39;85.10
3524;BME280;1776;53.330;11.498;2024-02-26T06:21:12;23302.44;;;-147.39;84.87
3524;BME280;1776;53.330;11.498;2024-02-26T06:23:41;23316.69;;;-147.39;84.34
3524;BME280;1776;53.330;11.498;2024-02-26T06:26:06;23347.16;;;-147.39;83.56
3524;BME280;1776;53.330;11.498;2024-02-26T06:28:31;23353.28;;;-147.39;83.51
3524;BME280;1776;53.330;11.498;2024-02-26T06:31:00;23326.84;;;-147.39;83.48
3524;BME280;1776;53.330;11.498;2024-02-26T06:33:26;23361.41;;;-147.39;83.52
3524;BME280;1776;53.330;11.498;2024-02-26T06:35:51;23365.47;;;-147.39;83.35
3524;BME280;1776;53.330;11.498;2024-02-26T06:38:16;23361.41;;;-147.39;83.56
3524;BME280;1776;53.330;11.498;2024-02-26T06:40:43;23353.28;;;-147.39;83.61
3524;BME280;1776;53.330;11.498;2024-02-26T06:43:09;23406.13;;;-147.39;84.41
3524;BME280;1776;53.330;11.498;2024-02-26T06:45:34;23337.00;;;-147.39;84.83
3524;BME280;1776;53.330;11.498;2024-02-26T06:47:59;23310.56;;;-147.39;85.54
3524;BME280;1776;53.330;11.498;2024-02-26T06:50:24;23306.50;;;-147.39;85.49
3524;BME280;1776;53.330;11.498;2024-02-26T06:52:50;23359.38;;;-147.39;85.68
3524;BME280;1776;53.330;11.498;2024-02-26T06:55:15;23320.75;;;-147.39;85.75
3524;BME280;1776;53.330;11.498;2024-02-26T06:57:40;23294.31;;;-147.39;85.64
3524;BME280;1776;53.330;11.498;2024-02-26T07:00:06;23302.44;;;-147.39;85.12
3524;BME280;1776;53.330;11.498;2024-02-26T07:02:31;23349.19;;;-147.39;85.18
3524;BME280;1776;53.330;11.498;2024-02-26T07:04:57;23341.06;;;-147.39;85.20
3524;BME280;1776;53.330;11.498;2024-02-26T07:07:23;23300.41;;;-147.39;85.16
3524;BME280;1776;53.330;11.498;2024-02-26T07:09:49;23318.72;;;-147.39;84.90
3524;BME280;1776;53.330;11.498;2024-02-26T07:12:14;23326.84;;;-147.39;84.88
3524;BME280;1776;53.330;11.498;2024-02-26T07:14:41;23314.66;;;-147.39;84.81
3524;BME280;1776;53.330;11.498;2024-02-26T07:17:06;23381.72;;;-147.39;84.70
3524;BME280;1776;53.330;11.498;2024-02-26T07:19:31;23328.88;;;-147.39;84.86
3524;BME280;1776;53.330;11.498;2024-02-26T07:21:57;23367.50;;;-147.39;85.10
3524;BME280;1776;53.330;11.498;2024-02-26T07:24:22;23300.41;;;-147.39;85.39
3524;BME280;1776;53.330;11.498;2024-02-26T07:26:47;23286.19;;;-147.39;85.22
3524;BME280;1776;53.330;11.498;2024-02-26T07:29:13;23361.41;;;-147.39;85.06
3524;BME280;1776;53.330;11.498;2024-02-26T07:31:38;23373.59;;;-147.39;84.44
3524;BME280;1776;53.330;11.498;2024-02-26T07:34:03;23320.75;;;-147.39;85.02
3524;BME280;1776;53.330;11.498;2024-02-26T07:36:28;23304.47;;;-147.39;84.84
3524;BME280;1776;53.330;11.498;2024-02-26T07:38:53;23351.22;;;-147.39;84.93
3524;BME280;1776;53.330;11.498;2024-02-26T07:41:20;23320.75;;;-147.39;85.17
3524;BME280;1776;53.330;11.498;2024-02-26T07:43:45;23497.59;;;-147.39;85.17
3524;BME280;1776;53.330;11.498;2024-02-26T07:46:13;23345.13;;;-147.39;85.62
3524;BME280;1776;53.330;11.498;2024-02-26T07:48:38;23334.97;;;-147.39;85.44
3524;BME280;1776;53.330;11.498;2024-02-26T07:51:04;23326.84;;;-147.39;85.35
3524;BME280;1776;53.330;11.498;2024-02-26T07:53:30;23365.47;;;-147.39;85.43
3524;BME280;1776;53.330;11.498;2024-02-26T07:55:56;23328.88;;;-147.39;85.41
3524;BME280;1776;53.330;11.498;2024-02-26T07:58:22;23324.81;;;-147.39;85.15
3524;BME280;1776;53.330;11.498;2024-02-26T08:00:48;23318.72;;;-147.39;84.94
3524;BME280;1776;53.330;11.498;2024-02-26T08:03:14;23300.41;;;-147.39;84.96
3524;BME280;1776;53.330;11.498;2024-02-26T08:05:40;23349.19;;;-147.39;84.85
3524;BME280;1776;53.330;11.498;2024-02-26T08:08:07;23418.31;;;-147.39;84.44
3524;BME280;1776;53.330;11.498;2024-02-26T08:10:33;23347.16;;;-147.39;84.52
3524;BME280;1776;53.330;11.498;2024-02-26T08:12:58;23369.53;;;-147.39;84.81
3524;BME280;1776;53.330;11.498;2024-02-26T08:15:33;23377.66;;;-147.39;85.06
3524;BME280;1776;53.330;11.498;2024-02-26T08:18:00;23422.38;;;-147.39;84.46
3524;BME280;1776;53.330;11.498;2024-02-26T08:20:27;23389.84;;;-147.39;83.64
3524;BME280;1776;53.330;11.498;2024-02-26T08:22:53;23393.94;;;-147.39;83.76
3524;BME280;1776;53.330;11.498;2024-02-26T08:25:18;23377.66;;;-147.39;83.38
3524;BME280;1776;53.330;11.498;2024-02-26T08:27:43;23385.78;;;-147.39;83.06
3524;BME280;1776;53.330;11.498;2024-02-26T08:30:09;23398.00;;;-147.39;82.62
3524;BME280;1776;53.330;11.498;2024-02-26T08:32:35;23406.13;;;-147.39;82.23
3524;BME280;1776;53.330;11.498;2024-02-26T08:35:00;23420.34;;;-147.39;82.42
3524;BME280;1776;53.330;11.498;2024-02-26T08:37:25;23414.25;;;-147.39;82.88
3524;BME280;1776;53.330;11.498;2024-02-26T08:39:51;23442.72;;;-147.39;82.34
3524;BME280;1776;53.330;11.498;2024-02-26T08:42:16;23434.59;;;-147.39;82.55
3524;BME280;1776;53.330;11.498;2024-02-26T08:44:41;23434.59;;;-147.39;82.75
3524;BME280;1776;53.330;11.498;2024-02-26T08:47:06;23434.59;;;-147.39;82.67
3524;BME280;1776;53.330;11.498;2024-02-26T08:49:32;23438.66;;;-147.39;82.91
3524;BME280;1776;53.330;11.498;2024-02-26T08:51:57;23432.56;;;-147.39;82.14
3524;BME280;1776;53.330;11.498;2024-02-26T08:54:22;23461.00;;;-147.39;81.80
3524;BME280;1776;53.330;11.498;2024-02-26T08:56:49;23463.03;;;-147.39;81.71
3524;BME280;1776;53.330;11.498;2024-02-26T08:59:14;23509.81;;;-147.39;81.19
3524;BME280;1776;53.330;11.498;2024-02-26T09:01:41;23485.41;;;-147.39;82.34
3524;BME280;1776;53.330;11.498;2024-02-26T09:04:06;23461.00;;;-147.39;81.89
3524;BME280;1776;53.330;11.498;2024-02-26T09:06:31;23456.94;;;-147.39;81.60
3524;BME280;1776;53.330;11.498;2024-02-26T09:08:57;23422.38;;;-147.39;81.65
3524;BME280;1776;53.330;11.498;2024-02-26T09:11:22;23463.03;;;-147.39;80.85
3524;BME280;1776;53.330;11.498;2024-02-26T09:13:47;23477.28;;;-147.39;80.63
3524;BME280;1776;53.330;11.498;2024-02-26T09:16:13;23485.41;;;-147.39;80.52
3524;BME280;1776;53.330;11.498;2024-02-26T09:18:38;23507.78;;;-147.39;79.97
3524;BME280;1776;53.330;11.498;2024-02-26T09:21:04;23513.88;;;-147.39;80.28
3524;BME280;1776;53.330;11.498;2024-02-26T09:23:31;23519.97;;;-147.39;80.00
3524;BME280;1776;53.330;11.498;2024-02-26T09:25:56;23536.22;;;-147.39;80.66
3524;BME280;1776;53.330;11.498;2024-02-26T09:28:22;23511.84;;;-147.39;80.35
3524;BME280;1776;53.330;11.498;2024-02-26T09:30:47;23511.84;;;-147.39;80.39
3524;BME280;1776;53.330;11.498;2024-02-26T09:33:14;23511.84;;;-147.39;80.22
3524;BME280;1776;53.330;11.498;2024-02-26T09:35:39;23550.47;;;-147.39;79.66
3524;BME280;1776;53.330;11.498;2024-02-26T09:38:05;23515.91;;;-147.39;80.29
3524;BME280;1776;53.330;11.498;2024-02-26T09:40:30;23542.34;;;-147.39;80.56
3524;BME280;1776;53.330;11.498;2024-02-26T09:43:02;23528.09;;;-147.39;80.45
3524;BME280;1776;53.330;11.498;2024-02-26T09:45:30;23564.69;;;-147.39;80.14
3524;BME280;1776;53.330;11.498;2024-02-26T09:47:57;23564.69;;;-147.39;79.79
3524;BME280;1776;53.330;11.498;2024-02-26T09:50:24;23572.81;;;-147.39;78.92
3524;BME280;1776;53.330;11.498;2024-02-26T09:52:51;23578.94;;;-147.39;79.34
3524;BME280;1776;53.330;11.498;2024-02-26T09:55:16;23625.69;;;-147.39;79.08
3524;BME280;1776;53.330;11.498;2024-02-26T09:57:46;23617.56;;;-147.39;78.95
3524;BME280;1776;53.330;11.498;2024-02-26T10:00:17;23595.19;;;-147.39;79.01
3524;BME280;1776;53.330;11.498;2024-02-26T10:02:48;23601.28;;;-147.39;78.90
3524;BME280;1776;53.330;11.498;2024-02-26T10:05:17;23639.91;;;-147.39;78.89
3524;BME280;1776;53.330;11.498;2024-02-26T10:07:45;23639.91;;;-147.39;78.37
3524;BME280;1776;53.330;11.498;2024-02-26T10:10:11;23646.00;;;-147.39;77.87
3524;BME280;1776;53.330;11.498;2024-02-26T10:12:36;23678.53;;;-147.39;77.90
3524;BME280;1776;53.330;11.498;2024-02-26T10:15:02;23707.00;;;-147.39;77.09
3524;BME280;1776;53.330;11.498;2024-02-26T10:17:28;23682.59;;;-147.39;77.21
3524;BME280;1776;53.330;11.498;2024-02-26T10:19:53;23676.50;;;-147.39;77.15
3524;BME280;1776;53.330;11.498;2024-02-26T10:22:22;23637.88;;;-147.39;77.16
3524;BME280;1776;53.330;11.498;2024-02-26T10:24:48;23735.47;;;-147.39;77.26
3524;BME280;1776;53.330;11.498;2024-02-26T10:27:14;23666.34;;;-147.39;77.20
3524;BME280;1776;53.330;11.498;2024-02-26T10:29:40;23696.84;;;-147.39;77.10
3524;BME280;1776;53.330;11.498;2024-02-26T10:32:05;23692.78;;;-147.39;77.29
3524;BME280;1776;53.330;11.498;2024-02-26T10:34:31;23678.53;;;-147.39;76.87
3524;BME280;1776;53.330;11.498;2024-02-26T10:36:56;23713.09;;;-147.39;76.42
3524;BME280;1776;53.330;11.498;2024-02-26T10:39:21;23719.19;;;-147.39;76.52
3524;BME280;1776;53.330;11.498;2024-02-26T10:41:47;23698.88;;;-147.39;76.14
3524;BME280;1776;53.330;11.498;2024-02-26T10:44:12;23755.81;;;-147.39;75.65
3524;BME280;1776;53.330;11.498;2024-02-26T10:46:39;23741.56;;;-147.39;75.32
3524;BME280;1776;53.330;11.498;2024-02-26T10:49:05;23810.69;;;-147.39;74.48
3524;BME280;1776;53.330;11.498;2024-02-26T10:51:34;23763.94;;;-147.39;74.20
3524;BME280;1776;53.330;11.498;2024-02-26T10:54:02;23790.38;;;-147.39;73.35
3524;BME280;1776;53.330;11.498;2024-02-26T10:56:34;23814.75;;;-147.39;72.79
3524;BME280;1776;53.330;11.498;2024-02-26T10:59:00;23865.59;;;-147.39;72.19
3524;BME280;1776;53.330;11.498;2024-02-26T11:01:27;23847.28;;;-147.39;71.15
3524;BME280;1776;53.330;11.498;2024-02-26T11:03:55;23908.28;;;-147.39;70.09
3524;BME280;1776;53.330;11.498;2024-02-26T11:06:21;23932.69;;;-147.39;68.60
3524;BME280;1776;53.330;11.498;2024-02-26T11:08:50;23953.00;;;-147.39;67.98
3524;BME280;1776;53.330;11.498;2024-02-26T11:11:17;23938.78;;;-147.39;67.26
3524;BME280;1776;53.330;11.498;2024-02-26T11:13:44;23950.97;;;-147.39;66.18
3524;BME280;1776;53.330;11.498;2024-02-26T11:16:13;24014.00;;;-147.39;66.50
3524;BME280;1776;53.330;11.498;2024-02-26T11:18:40;24028.25;;;-147.39;64.81
3524;BME280;1776;53.330;11.498;2024-02-26T11:21:07;24068.91;;;-147.39;64.50
3524;BME280;1776;53.330;11.498;2024-02-26T11:23:33;24136.00;;;-147.39;63.11
3524;BME280;1776;53.330;11.498;2024-02-26T11:26:02;24101.44;;;-147.39;62.01
3524;BME280;1776;53.330;11.498;2024-02-26T11:28:30;24144.13;;;-147.39;60.67
3524;BME280;1776;53.330;11.498;2024-02-26T11:30:59;24158.38;;;-147.39;60.97
3524;BME280;1776;53.330;11.498;2024-02-26T11:33:26;24182.78;;;-147.39;60.25
3524;BME280;1776;53.330;11.498;2024-02-26T11:35:51;24188.88;;;-147.39;59.54
3524;BME280;1776;53.330;11.498;2024-02-26T11:38:20;24215.31;;;-147.39;59.02
3524;BME280;1776;53.330;11.498;2024-02-26T11:40:46;24231.56;;;-147.39;58.88
3524;BME280;1776;53.330;11.498;2024-02-26T11:43:12;24247.84;;;-147.39;58.68
3524;BME280;1776;53.330;11.498;2024-02-26T11:48:19;24251.91;;;-147.39;59.47
3524;BME280;1776;53.330;11.498;2024-02-26T11:53:32;24188.88;;;-147.39;58.44
3524;BME280;1776;53.330;11.498;2024-02-26T11:58:41;24298.66;;;-147.39;57.77
3524;BME280;1776;53.330;11.498;2024-02-26T12:01:41;24270.22;;;-147.39;56.81
3524;BME280;1776;53.330;11.498;2024-02-26T12:04:15;24284.44;;;-147.39;57.09
3524;BME280;1776;53.330;11.498;2024-02-26T12:06:45;24272.25;;;-147.39;57.73
3524;BME280;1776;53.330;11.498;2024-02-26T12:09:11;24325.09;;;-147.39;57.14
3524;BME280;1776;53.330;11.498;2024-02-26T12:11:38;24369.84;;;-147.39;56.32
3524;BME280;1776;53.330;11.498;2024-02-26T12:14:05;24365.78;;;-147.39;56.66
3524;BME280;1776;53.330;11.498;2024-02-26T12:16:38;24341.38;;;-147.39;56.09
3524;BME280;1776;53.330;11.498;2024-02-26T12:19:06;24426.78;;;-147.39;55.21
3524;BME280;1776;53.330;11.498;2024-02-26T12:21:36;24394.25;;;-147.39;54.73
3524;BME280;1776;53.330;11.498;2024-02-26T12:24:14;24438.97;;;-147.39;54.62
3524;BME280;1776;53.330;11.498;2024-02-26T12:26:43;24447.13;;;-147.39;54.40
3524;BME280;1776;53.330;11.498;2024-02-26T12:29:08;24495.91;;;-147.39;53.50
3524;BME280;1776;53.330;11.498;2024-02-26T12:31:34;24550.81;;;-147.39;53.29
3524;BME280;1776;53.330;11.498;2024-02-26T12:34:02;24575.22;;;-147.39;51.90
3524;BME280;1776;53.330;11.498;2024-02-26T12:36:28;24544.72;;;-147.39;52.42
3524;BME280;1776;53.330;11.498;2024-02-26T12:38:53;24581.31;;;-147.39;51.54
3524;BME280;1776;53.330;11.498;2024-02-26T12:41:19;24619.97;;;-147.39;51.16
3524;BME280;1776;53.330;11.498;2024-02-26T12:43:44;24613.84;;;-147.39;51.37
3524;BME280;1776;53.330;11.498;2024-02-26T12:46:11;24613.84;;;-147.39;51.13
3524;BME280;1776;53.330;11.498;2024-02-26T12:48:37;24670.78;;;-147.39;49.81
3524;BME280;1776;53.330;11.498;2024-02-26T12:51:03;24607.75;;;-147.39;50.53